Grand Forks AFB, ND

6:37 PM CST on January 21, 2017 (GMT -0600)
Grand Forks AFB

Weather History for KRDR - September, 2013

Change the Weather History Date:

Thursday, September 19, 2013

  Actual Average Record
Temperature  
Mean Temperature 62 °F -  
Max Temperature 72 °F 66 °F 89 °F (2004)
Min Temperature 53 °F 43 °F 34 °F (2006)
Degree Days  
Heating Degree Days 3    
Growing Degree Days 12 (Base 50)    
Moisture  
Dew Point 59 °F    
Average Humidity 95    
Maximum Humidity 100    
Minimum Humidity 58    
Precipitation  
Precipitation 0.00 in - - ()
Sea Level Pressure  
Sea Level Pressure 29.73 in    
Wind  
Wind Speed 8 mph (NNW)    
Max Wind Speed 20 mph    
Max Gust Speed 26 mph    
Visibility 6 miles    
Events Fog , Rain    
Averages and records for this station are not official NWS values.
T = Trace of Precipitation, MM = Missing Value Source: NWS Daily Summary

Daily Weather History Graph

Daily Weather History Graph

Search for Another Location

Airport or City:

Trip Planner

Search our weather history database for the weather conditions in past years. The results will help you decide how hot, cold, wet, or windy it might be!

Date:

Astronomy

Sep. 19, 2013 Rise Set
Actual Time 7:12 AM CDT 7:33 PM CDT
Civil Twilight 6:41 AM CDT 8:04 PM CDT
Nautical Twilight 6:04 AM CDT 8:40 PM CDT
Astronomical Twilight 5:26 AM CDT 9:18 PM CDT
Moon 7:25 PM CDT (9/19) 7:27 AM CDT (9/19)
Length of Visible Light 13h 22m
Length of Day
12h 20m
Full, 100% of the Moon is Illuminated
Sep 19
Full
Sep 26
Last Quarter
Oct 4
New
Oct 11
First Quarter
Oct 18
Full

Hourly Weather History & Observations

Time (CDT) Temp. Dew Point Humidity Pressure Visibility Wind Dir Wind Speed Gust Speed Precip Events Conditions
12:08 AM 64.4 °F 64.4 °F 100% 29.63 in 5.0 mi SSE 8.1 mph - N/A   Mostly Cloudy
12:28 AM 64.4 °F 64.4 °F 100% 29.64 in 5.0 mi South 8.1 mph - N/A   Mostly Cloudy
12:58 AM 63.5 °F 63.5 °F 100% 29.63 in 4.0 mi SSW 6.9 mph - N/A   Partly Cloudy
1:38 AM 62.6 °F 62.6 °F 100% 29.62 in 3.0 mi WNW 3.5 mph - N/A   Clear
1:48 AM 62.6 °F 62.6 °F 100% 29.62 in 2.5 mi WNW 5.8 mph - N/A   Clear
1:58 AM 63.0 °F 63.0 °F 100% 29.63 in 3.0 mi NNW 3.5 mph - N/A   Clear
2:03 AM 60.8 °F 60.8 °F 100% 29.61 in 1.5 mi North 2.3 mph - N/A   Clear
2:08 AM 60.8 °F 60.8 °F 100% 29.61 in 0.8 mi North 2.3 mph - N/A   Clear
2:13 AM 60.8 °F 60.8 °F 100% 29.62 in 0.5 mi WNW 3.5 mph - N/A Fog Fog
2:18 AM 60.8 °F 60.8 °F 100% 29.62 in 0.2 mi WNW 5.8 mph - N/A Fog Fog
2:28 AM 60.8 °F 60.8 °F 100% 29.62 in 0.5 mi West 6.9 mph - N/A Fog Fog
2:33 AM 60.8 °F 60.8 °F 100% 29.62 in 1.2 mi West 5.8 mph - N/A   Clear
2:38 AM 62.6 °F 62.6 °F 100% 29.62 in 0.8 mi WNW 5.8 mph - N/A   Clear
2:40 AM 62.6 °F 62.6 °F 100% 29.62 in 0.5 mi WNW 6.9 mph - N/A Fog Fog
2:45 AM 62.6 °F 62.6 °F 100% 29.61 in 0.2 mi WNW 6.9 mph - N/A Fog Fog
2:55 AM 62.6 °F 62.6 °F 100% 29.61 in 0.5 mi NW 4.6 mph - N/A Fog Fog
2:58 AM 62.6 °F 62.6 °F 100% 29.62 in 0.5 mi Variable 6.9 mph - N/A Fog Fog
3:03 AM 62.6 °F 62.6 °F 100% 29.62 in 0.8 mi Variable 6.9 mph - N/A   Mist
3:08 AM 62.6 °F 62.6 °F 100% 29.62 in 1.5 mi Variable 4.6 mph - N/A   Scattered Clouds
3:13 AM 64.4 °F 64.4 °F 100% 29.62 in 5.0 mi ESE 8.1 mph - N/A   Scattered Clouds
3:18 AM 64.4 °F 64.4 °F 100% 29.62 in 4.0 mi East 5.8 mph - N/A   Mostly Cloudy
3:28 AM 64.4 °F 64.4 °F 100% 29.61 in 2.5 mi SE 4.6 mph - N/A   Overcast
3:33 AM 64.4 °F 64.4 °F 100% 29.61 in 1.5 mi ESE 4.6 mph - N/A   Mostly Cloudy
3:38 AM 62.6 °F 62.6 °F 100% 29.61 in 0.8 mi East 5.8 mph - N/A   Mist
3:43 AM 62.6 °F 62.6 °F 100% 29.61 in 0.5 mi ESE 3.5 mph - N/A Fog Fog
3:48 AM 62.6 °F 62.6 °F 100% 29.61 in 1.0 mi ESE 1.2 mph - N/A   Mist
3:53 AM 62.6 °F 62.6 °F 100% 29.61 in 0.5 mi SE 2.3 mph - N/A Fog Fog
3:58 AM 62.2 °F 62.1 °F 99% 29.62 in 0.2 mi Calm Calm - N/A Fog Fog
4:04 AM 62.6 °F 62.6 °F 100% 29.60 in 0.2 mi SSW 2.3 mph - N/A Fog Fog
4:24 AM 62.6 °F 62.6 °F 100% 29.61 in 0.5 mi SW 2.3 mph - N/A Fog Fog
4:29 AM 62.6 °F 62.6 °F 100% 29.61 in 0.5 mi West 4.6 mph - N/A Fog Fog
4:34 AM 62.6 °F 62.6 °F 100% 29.62 in 0.2 mi WNW 4.6 mph - N/A Fog Fog
4:58 AM 63.0 °F 63.0 °F 100% 29.62 in 0.2 mi NNW 2.3 mph - N/A Fog Fog
5:58 AM 61.3 °F 61.3 °F 100% 29.65 in 0.2 mi NNE 2.3 mph - N/A Fog Fog
6:58 AM 61.0 °F 61.0 °F 100% 29.67 in 0.2 mi Calm Calm - N/A Fog Fog
7:48 AM 60.8 °F 60.8 °F 100% 29.67 in 0.2 mi WSW 2.3 mph - N/A Fog Fog
7:53 AM 60.8 °F 60.8 °F 100% 29.67 in 0.5 mi West 2.3 mph - N/A Fog Fog
7:58 AM 62.1 °F 62.1 °F 100% 29.68 in 1.5 mi West 3.5 mph - N/A   Overcast
8:03 AM 62.6 °F 62.6 °F 100% 29.67 in 4.0 mi West 3.5 mph - N/A   Mostly Cloudy
8:04 AM 62.6 °F 62.6 °F 100% 29.67 in 4.0 mi West 4.6 mph - N/A   Mostly Cloudy
8:13 AM 62.6 °F 62.6 °F 100% 29.68 in 5.0 mi West 5.8 mph - N/A   Scattered Clouds
8:33 AM 62.6 °F 62.6 °F 100% 29.68 in 10.0 mi WNW 15.0 mph - N/A   Mostly Cloudy
8:55 AM 60.8 °F 60.8 °F 100% 29.70 in 10.0 mi WNW 16.1 mph - N/A   Overcast
8:58 AM 60.4 °F 60.4 °F 100% 29.72 in 10.0 mi WNW 17.3 mph 23.0 mph N/A   Overcast
9:23 AM 59.0 °F 59.0 °F 100% 29.70 in 10.0 mi NW 16.1 mph - N/A   Overcast
9:28 AM 59.0 °F 59.0 °F 100% 29.70 in 10.0 mi NW 15.0 mph 25.3 mph N/A   Overcast
9:58 AM 59.9 °F 59.9 °F 100% 29.74 in 10.0 mi NW 12.7 mph - N/A   Overcast
10:23 AM 62.6 °F 62.6 °F 100% 29.73 in 10.0 mi NW 17.3 mph 21.9 mph N/A   Overcast
10:48 AM 66.2 °F 57.2 °F 73% 29.74 in 10.0 mi NW 19.6 mph 26.5 mph N/A   Scattered Clouds
10:58 AM 66.7 °F 57.7 °F 73% 29.75 in 10.0 mi NW 17.3 mph 23.0 mph N/A   Partly Cloudy
11:58 AM 68.0 °F 56.3 °F 66% 29.76 in 10.0 mi NW 16.1 mph - N/A   Overcast
12:58 PM 70.0 °F 55.8 °F 61% 29.77 in 10.0 mi WNW 11.5 mph - N/A   Mostly Cloudy
1:58 PM 69.1 °F 54.9 °F 60% 29.76 in 10.0 mi NW 12.7 mph - N/A   Mostly Cloudy
2:58 PM 69.1 °F 54.7 °F 60% 29.77 in 10.0 mi NW 11.5 mph - N/A   Scattered Clouds
3:58 PM 69.1 °F 54.0 °F 58% 29.78 in 10.0 mi WNW 15.0 mph 21.9 mph N/A   Partly Cloudy
4:58 PM 68.7 °F 54.0 °F 59% 29.79 in 10.0 mi NW 12.7 mph - N/A   Mostly Cloudy
5:58 PM 65.5 °F 53.6 °F 65% 29.79 in 10.0 mi NW 10.4 mph - N/A   Partly Cloudy
6:43 PM 62.6 °F 57.2 °F 82% 29.79 in 10.0 mi NNE 13.8 mph 17.3 mph N/A   Overcast
6:58 PM 62.1 °F 56.8 °F 83% 29.82 in 10.0 mi NNE 15.0 mph - N/A   Overcast
6:59 PM 62.6 °F 57.2 °F 82% 29.80 in 9.0 mi NNE 15.0 mph - N/A Rain Light Rain
7:09 PM 59.0 °F 57.2 °F 94% 29.81 in 5.0 mi North 12.7 mph - N/A Rain Light Rain
7:20 PM 59.0 °F 59.0 °F 100% 29.81 in 10.0 mi NNE 11.5 mph - N/A   Light Drizzle
7:32 PM 57.2 °F 57.2 °F 100% 29.82 in 10.0 mi North 12.7 mph 20.7 mph N/A   Overcast
7:39 PM 57.2 °F 57.2 °F 100% 29.82 in 10.0 mi NNE 15.0 mph 21.9 mph N/A   Overcast
7:44 PM 57.2 °F 57.2 °F 100% 29.82 in 10.0 mi NNE 12.7 mph 21.9 mph N/A   Overcast
7:49 PM 57.2 °F 57.2 °F 100% 29.82 in 10.0 mi NNE 13.8 mph 21.9 mph N/A   Overcast
7:54 PM 57.2 °F 55.4 °F 94% 29.83 in 10.0 mi NNE 13.8 mph - N/A   Overcast
7:58 PM 56.3 °F 56.1 °F 99% 29.85 in 10.0 mi NNE 12.7 mph - 0.00 in   Overcast
8:03 PM 55.4 °F 55.4 °F 100% 29.83 in 10.0 mi NNE 10.4 mph - N/A   Overcast
8:08 PM 55.4 °F 55.4 °F 100% 29.84 in 10.0 mi North 10.4 mph - N/A   Overcast
8:09 PM 55.4 °F 55.4 °F 100% 29.84 in 9.0 mi North 9.2 mph - N/A   Light Drizzle
8:14 PM 55.4 °F 55.4 °F 100% 29.85 in 8.0 mi North 9.2 mph - N/A Rain Light Rain
8:19 PM 55.4 °F 55.4 °F 100% 29.85 in 9.0 mi North 8.1 mph - N/A Rain Light Rain
8:23 PM 55.4 °F 55.4 °F 100% 29.85 in 10.0 mi North 8.1 mph - N/A   Overcast
8:27 PM 55.4 °F 55.4 °F 100% 29.85 in 10.0 mi North 9.2 mph - N/A   Light Drizzle
8:41 PM 55.4 °F 55.4 °F 100% 29.86 in 10.0 mi North 12.7 mph - N/A   Overcast
8:43 PM 55.4 °F 55.4 °F 100% 29.86 in 10.0 mi North 11.5 mph - N/A   Light Drizzle
8:48 PM 55.4 °F 55.4 °F 100% 29.86 in 10.0 mi North 10.4 mph - N/A   Light Drizzle
8:58 PM 55.8 °F 55.4 °F 99% 29.88 in 10.0 mi North 9.2 mph - 0.00 in   Light Drizzle
8:59 PM 55.4 °F 55.4 °F 100% 29.87 in 10.0 mi North 8.1 mph - N/A   Overcast
9:02 PM 55.4 °F 55.4 °F 100% 29.86 in 10.0 mi North 10.4 mph - N/A   Light Drizzle
9:15 PM 55.4 °F 55.4 °F 100% 29.86 in 10.0 mi North 9.2 mph - N/A   Overcast
9:20 PM 55.4 °F 55.4 °F 100% 29.87 in 10.0 mi North 12.7 mph - N/A   Overcast
9:40 PM 55.4 °F 53.6 °F 94% 29.88 in 10.0 mi North 10.4 mph - N/A   Overcast
9:58 PM 54.9 °F 53.6 °F 96% 29.90 in 10.0 mi North 9.2 mph - 0.00 in   Overcast
10:48 PM 55.4 °F 51.8 °F 88% 29.88 in 10.0 mi North 10.4 mph - N/A   Overcast
10:58 PM 54.5 °F 52.5 °F 93% 29.89 in 10.0 mi North 9.2 mph - N/A   Overcast
11:58 PM 53.4 °F 49.6 °F 87% 29.90 in 10.0 mi North 12.7 mph - N/A   Overcast